createdAt,value
2018-09-21T00:01:50.014Z,68.54
2018-09-21T00:04:18.414Z,68.11
2018-09-21T00:06:46.789Z,68.05
2018-09-21T00:09:15.206Z,68.10
2018-09-21T00:11:43.578Z,68.04
2018-09-21T00:14:11.961Z,68.66
2018-09-21T00:16:40.360Z,67.76
2018-09-21T00:19:08.745Z,68.59
2018-09-21T00:21:37.147Z,68.17
2018-09-21T00:24:05.530Z,68.13
2018-09-21T00:26:33.950Z,68.01
2018-09-21T00:29:02.342Z,68.60
2018-09-21T00:31:30.744Z,68.01
2018-09-21T00:33:59.130Z,67.82
2018-09-21T00:36:27.538Z,67.75
2018-09-21T00:38:55.906Z,68.32
2018-09-21T00:41:24.318Z,68.81
2018-09-21T00:43:52.698Z,68.37
2018-09-21T00:46:21.091Z,68.37
2018-09-21T00:48:49.474Z,68.25
2018-09-21T00:51:17.878Z,68.84
2018-09-21T00:53:46.250Z,68.55
2018-09-21T00:56:14.646Z,67.93
2018-09-21T00:58:43.030Z,67.83
2018-09-21T01:01:11.426Z,68.81
2018-09-21T01:03:39.801Z,68.74
2018-09-21T01:06:08.206Z,68.46
2018-09-21T01:08:36.581Z,69.00
2018-09-21T01:11:05.078Z,68.19
2018-09-21T01:13:33.535Z,68.78
2018-09-21T01:16:01.934Z,68.68
2018-09-21T01:18:30.306Z,68.86
2018-09-21T01:20:58.710Z,68.59
2018-09-21T01:23:27.083Z,68.50
2018-09-21T01:25:55.671Z,68.57
2018-09-21T01:28:24.046Z,68.01
2018-09-21T01:30:52.442Z,68.17
2018-09-21T01:33:20.818Z,67.79
2018-09-21T01:35:49.300Z,67.21
2018-09-21T01:38:17.679Z,67.75
2018-09-21T01:40:46.074Z,67.08
2018-09-21T01:43:14.450Z,66.98
2018-09-21T01:45:42.856Z,66.65
2018-09-21T01:48:11.226Z,67.32
2018-09-21T01:50:39.627Z,66.26
2018-09-21T01:53:08.001Z,66.23
2018-09-21T01:55:36.390Z,66.38
2018-09-21T01:58:04.763Z,65.87
2018-09-21T02:00:33.195Z,66.20
2018-09-21T02:03:01.579Z,65.66
2018-09-21T02:05:29.966Z,65.93
2018-09-21T02:07:58.367Z,65.67
2018-09-21T02:10:26.743Z,65.36
2018-09-21T02:12:55.151Z,64.86
2018-09-21T02:15:23.532Z,64.94
2018-09-21T02:17:51.998Z,65.09
2018-09-21T02:20:20.365Z,64.71
2018-09-21T02:22:48.803Z,64.24
2018-09-21T02:25:17.198Z,64.18
2018-09-21T02:27:45.594Z,63.97
2018-09-21T02:30:14.118Z,63.89
2018-09-21T02:32:42.523Z,64.04
2018-09-21T02:35:11.078Z,64.11
2018-09-21T02:37:39.475Z,63.29
2018-09-21T02:40:08.250Z,63.25
2018-09-21T02:42:36.655Z,63.52
2018-09-21T02:45:05.251Z,63.21
2018-09-21T02:47:33.655Z,63.37
2018-09-21T02:50:02.031Z,63.79
2018-09-21T02:52:30.442Z,62.88
2018-09-21T02:54:58.821Z,62.82
2018-09-21T02:57:27.224Z,62.93
2018-09-21T02:59:55.615Z,63.13
2018-09-21T03:02:24.009Z,62.91
2018-09-21T03:04:55.014Z,61.92
2018-09-21T03:07:24.333Z,62.52
2018-09-21T03:09:52.730Z,61.76
2018-09-21T03:12:21.136Z,61.46
2018-09-21T03:14:49.507Z,60.89
2018-09-21T03:17:17.906Z,60.16
2018-09-21T03:19:46.295Z,59.71
2018-09-21T03:22:14.693Z,59.96
2018-09-21T03:24:43.094Z,59.81
2018-09-21T03:27:11.482Z,59.68
2018-09-21T03:29:40.036Z,58.57
2018-09-21T03:32:08.430Z,59.13
2018-09-21T03:34:36.801Z,58.31
2018-09-21T03:37:05.202Z,57.51
2018-09-21T03:39:33.586Z,58.39
2018-09-21T03:42:01.999Z,57.46
2018-09-21T03:44:30.373Z,57.92
2018-09-21T03:46:58.779Z,58.08
2018-09-21T03:49:27.771Z,57.65
2018-09-21T03:51:56.165Z,57.36
2018-09-21T03:54:24.556Z,57.41
2018-09-21T03:56:53.213Z,56.77
2018-09-21T03:59:21.588Z,56.73
2018-09-21T04:01:49.986Z,56.65
2018-09-21T04:04:18.379Z,56.11
2018-09-21T04:06:47.055Z,56.10
2018-09-21T04:09:15.444Z,55.86
2018-09-21T04:11:43.825Z,56.50
2018-09-21T04:14:12.219Z,56.27
2018-09-21T04:16:40.598Z,55.64
2018-09-21T04:19:08.995Z,55.95
2018-09-21T04:21:37.381Z,56.78
2018-09-21T04:24:05.789Z,55.78
2018-09-21T04:26:34.183Z,55.84
2018-09-21T04:29:02.586Z,55.86
2018-09-21T04:31:31.070Z,55.98
2018-09-21T04:33:59.544Z,56.02
2018-09-21T04:36:27.902Z,56.13
2018-09-21T04:38:56.305Z,56.73
2018-09-21T04:41:24.678Z,56.87
2018-09-21T04:43:53.077Z,56.29
2018-09-21T04:46:21.475Z,57.14
2018-09-21T04:48:49.879Z,57.30
2018-09-21T04:51:18.251Z,57.04
2018-09-21T04:53:46.655Z,56.79
2018-09-21T04:56:15.027Z,57.09
2018-09-21T04:58:43.421Z,57.59
2018-09-21T05:01:11.803Z,57.19
2018-09-21T05:03:40.212Z,56.35
2018-09-21T05:06:08.626Z,56.73
2018-09-21T05:08:37.033Z,57.69
2018-09-21T05:11:05.414Z,57.25
2018-09-21T05:13:33.814Z,56.59
2018-09-21T05:16:02.210Z,57.29
2018-09-21T05:18:30.616Z,57.04
2018-09-21T05:20:58.991Z,57.79
2018-09-21T05:23:27.386Z,57.65
2018-09-21T05:25:55.787Z,56.93
2018-09-21T05:28:24.188Z,57.34
2018-09-21T05:30:52.563Z,57.69
2018-09-21T05:33:20.954Z,57.16
2018-09-21T05:35:49.327Z,57.51
2018-09-21T05:38:17.723Z,57.19
2018-09-21T05:40:46.098Z,56.69
2018-09-21T05:43:14.549Z,56.74
2018-09-21T05:45:43.044Z,56.89
2018-09-21T05:48:11.660Z,56.32
2018-09-21T05:50:40.031Z,56.15
2018-09-21T05:53:09.139Z,56.95
2018-09-21T05:55:37.679Z,55.97
2018-09-21T05:58:06.120Z,56.59
2018-09-21T06:00:34.495Z,56.61
2018-09-21T06:03:02.891Z,56.21
2018-09-21T06:05:31.286Z,56.62
2018-09-21T06:07:59.751Z,56.35
2018-09-21T06:10:28.161Z,56.32
2018-09-21T06:12:56.638Z,55.76
2018-09-21T06:15:25.042Z,55.59
2018-09-21T06:17:53.454Z,56.04
2018-09-21T06:20:21.850Z,55.23
2018-09-21T06:22:50.247Z,55.95
2018-09-21T06:25:18.674Z,55.00
2018-09-21T06:27:47.050Z,55.04
2018-09-21T06:30:15.452Z,55.65
2018-09-21T06:32:43.878Z,54.80
2018-09-21T06:35:12.274Z,54.51
2018-09-21T06:37:40.760Z,54.90
2018-09-21T06:40:09.220Z,54.20
2018-09-21T06:42:37.591Z,54.36
2018-09-21T06:45:06.142Z,53.76
2018-09-21T06:47:34.529Z,53.57
2018-09-21T06:50:02.973Z,53.97
2018-09-21T06:52:31.356Z,53.38
2018-09-21T06:54:59.742Z,54.12
2018-09-21T06:57:28.114Z,53.84
2018-09-21T06:59:56.664Z,53.41
2018-09-21T07:02:25.034Z,53.14
2018-09-21T07:04:53.525Z,52.60
2018-09-21T07:07:21.899Z,53.09
2018-09-21T07:09:50.314Z,52.89
2018-09-21T07:12:18.694Z,51.66
2018-09-21T07:14:47.085Z,51.94
2018-09-21T07:17:15.462Z,51.35
2018-09-21T07:19:43.866Z,51.13
2018-09-21T07:22:12.252Z,51.76
2018-09-21T07:24:40.826Z,50.94
2018-09-21T07:27:09.197Z,51.00
2018-09-21T07:29:37.598Z,50.94
2018-09-21T07:32:05.972Z,51.00
2018-09-21T07:34:34.377Z,51.09
2018-09-21T07:37:02.749Z,51.69
2018-09-21T07:39:31.289Z,52.21
2018-09-21T07:41:59.663Z,51.67
2018-09-21T07:44:28.066Z,52.19
2018-09-21T07:46:56.827Z,51.89
2018-09-21T07:49:25.277Z,52.96
2018-09-21T07:51:53.774Z,52.76
2018-09-21T07:54:22.214Z,52.54
2018-09-21T07:56:50.606Z,53.45
2018-09-21T07:59:18.999Z,52.74
2018-09-21T08:01:47.378Z,52.85
2018-09-21T08:04:15.747Z,52.97
2018-09-21T08:06:44.146Z,52.53
2018-09-21T08:09:12.523Z,53.29
2018-09-21T08:11:40.918Z,52.77
2018-09-21T08:14:09.303Z,53.20
2018-09-21T08:16:38.523Z,53.21
2018-09-21T08:19:07.399Z,52.37
2018-09-21T08:21:35.790Z,52.41
2018-09-21T08:24:04.554Z,52.88
2018-09-21T08:26:33.290Z,52.43
2018-09-21T08:29:01.658Z,52.87
2018-09-21T08:31:30.091Z,51.95
2018-09-21T08:33:58.461Z,52.47
2018-09-21T08:36:26.854Z,52.21
2018-09-21T08:38:55.222Z,51.24
2018-09-21T08:41:23.630Z,52.17
2018-09-21T08:43:52.002Z,50.97
2018-09-21T08:46:20.403Z,51.44
2018-09-21T08:48:50.511Z,50.88
2018-09-21T08:51:18.911Z,49.75
2018-09-21T08:53:47.299Z,49.53
2018-09-21T08:56:15.703Z,50.11
2018-09-21T08:58:44.082Z,49.10
2018-09-21T09:01:12.478Z,48.90
2018-09-21T09:03:40.853Z,48.63
2018-09-21T09:06:09.243Z,48.62
2018-09-21T09:08:37.627Z,47.99
2018-09-21T09:11:06.145Z,48.30
2018-09-21T09:13:34.528Z,47.81
2018-09-21T09:16:02.935Z,46.66
2018-09-21T09:18:31.315Z,46.90
2018-09-21T09:20:59.719Z,46.80
2018-09-21T09:23:28.196Z,46.37
2018-09-21T09:25:56.623Z,46.22
2018-09-21T09:28:25.001Z,45.91
2018-09-21T09:30:53.394Z,45.50
2018-09-21T09:33:21.771Z,45.21
2018-09-21T09:35:50.166Z,45.34
2018-09-21T09:38:18.530Z,44.75
2018-09-21T09:40:46.931Z,44.76
2018-09-21T09:43:15.323Z,45.40
2018-09-21T09:45:43.731Z,44.25
2018-09-21T09:48:12.110Z,44.50
2018-09-21T09:50:40.522Z,44.72
2018-09-21T09:53:08.902Z,43.94
2018-09-21T09:55:37.311Z,43.37
2018-09-21T09:58:05.715Z,43.14
2018-09-21T10:00:36.203Z,42.45
2018-09-21T10:03:04.591Z,42.05
2018-09-21T10:05:32.961Z,41.86
2018-09-21T10:08:01.354Z,43.12
2018-09-21T10:10:29.806Z,41.63
2018-09-21T10:12:58.171Z,42.53
2018-09-21T10:15:26.552Z,41.18
2018-09-21T10:17:54.947Z,40.41
2018-09-21T10:20:23.344Z,40.17
2018-09-21T10:22:51.734Z,40.53
2018-09-21T10:25:20.122Z,40.56
2018-09-21T10:27:48.622Z,39.94
2018-09-21T10:30:16.923Z,39.03
2018-09-21T10:32:45.322Z,39.56
2018-09-21T10:35:13.785Z,39.19
2018-09-21T10:37:42.153Z,38.24
2018-09-21T10:40:10.573Z,38.16
2018-09-21T10:42:39.030Z,38.10
2018-09-21T10:45:07.544Z,37.64
2018-09-21T10:47:35.951Z,38.19
2018-09-21T10:50:04.337Z,39.18
2018-09-21T10:52:32.815Z,38.53
2018-09-21T10:55:01.183Z,38.09
2018-09-21T10:57:29.591Z,37.93
2018-09-21T10:59:57.971Z,38.20
2018-09-21T11:02:26.375Z,38.10
2018-09-21T11:04:54.934Z,38.21
2018-09-21T11:07:23.335Z,38.03
2018-09-21T11:09:51.718Z,38.27
2018-09-21T11:12:20.127Z,38.83
2018-09-21T11:14:48.503Z,38.63
2018-09-21T11:17:16.894Z,37.98
2018-09-21T11:19:45.277Z,38.18
2018-09-21T11:22:13.690Z,37.60
2018-09-21T11:24:42.091Z,37.77
2018-09-21T11:27:10.583Z,38.58
2018-09-21T11:29:38.966Z,37.35
2018-09-21T11:32:07.467Z,38.04
2018-09-21T11:34:35.850Z,37.38
2018-09-21T11:37:04.249Z,38.52
2018-09-21T11:39:32.636Z,38.11
2018-09-21T11:42:01.030Z,38.50
2018-09-21T11:44:29.504Z,38.68
2018-09-21T11:46:58.014Z,38.01
2018-09-21T11:49:26.311Z,37.68
2018-09-21T11:51:54.710Z,37.56
2018-09-21T11:54:23.086Z,37.97
2018-09-21T11:56:51.486Z,36.59
2018-09-21T11:59:19.881Z,36.14
2018-09-21T12:01:48.295Z,37.08
2018-09-21T12:04:16.684Z,36.54
2018-09-21T12:06:45.062Z,36.97
2018-09-21T12:09:13.471Z,37.55
2018-09-21T12:11:41.854Z,37.21
2018-09-21T12:14:10.259Z,36.37
2018-09-21T12:16:38.845Z,36.15
2018-09-21T12:19:07.276Z,36.29
2018-09-21T12:21:35.646Z,37.29
2018-09-21T12:24:04.059Z,36.52
2018-09-21T12:26:32.567Z,36.33
2018-09-21T12:29:00.966Z,36.08
2018-09-21T12:31:29.359Z,36.62
2018-09-21T12:33:57.758Z,37.52
2018-09-21T12:36:26.167Z,37.66
2018-09-21T12:38:54.707Z,36.23
2018-09-21T12:41:23.122Z,36.49
2018-09-21T12:43:51.528Z,36.68
2018-09-21T12:46:25.232Z,37.44
2018-09-21T12:48:55.956Z,37.09
2018-09-21T12:51:24.683Z,37.02
2018-09-21T12:53:53.274Z,37.40
2018-09-21T12:56:21.646Z,36.88
2018-09-21T12:58:50.171Z,37.15
2018-09-21T13:01:18.470Z,37.00
2018-09-21T13:03:47.003Z,37.15
2018-09-21T13:06:15.400Z,37.21
2018-09-21T13:08:43.806Z,36.84
2018-09-21T13:11:12.204Z,36.50
2018-09-21T13:13:40.622Z,36.23
2018-09-21T13:16:09.006Z,35.49
2018-09-21T13:18:37.483Z,35.91
2018-09-21T13:21:05.876Z,35.93
2018-09-21T13:23:34.279Z,35.14
2018-09-21T13:26:02.704Z,34.69
2018-09-21T13:28:31.095Z,35.76
2018-09-21T13:30:59.542Z,34.94
2018-09-21T13:33:27.951Z,34.42
2018-09-21T13:35:56.322Z,34.59
2018-09-21T13:38:24.927Z,34.29
2018-09-21T13:40:53.295Z,35.35
2018-09-21T13:43:21.672Z,35.71
2018-09-21T13:45:50.066Z,36.33
2018-09-21T13:48:18.442Z,36.51
2018-09-21T13:50:46.831Z,35.85
2018-09-21T13:53:15.204Z,35.47
2018-09-21T13:55:43.599Z,36.66
2018-09-21T13:58:11.966Z,35.99
2018-09-21T14:00:40.359Z,37.81
2018-09-21T14:03:08.751Z,41.01
2018-09-21T14:05:37.238Z,41.80
2018-09-21T14:08:05.690Z,44.94
2018-09-21T14:10:34.097Z,47.42
2018-09-21T14:13:02.492Z,49.61
2018-09-21T14:15:30.891Z,52.10
2018-09-21T14:17:59.262Z,55.08
2018-09-21T14:20:27.672Z,56.78
2018-09-21T14:22:56.042Z,59.56
2018-09-21T14:25:24.451Z,61.53
2018-09-21T14:27:52.850Z,63.59
2018-09-21T14:30:21.259Z,65.59
2018-09-21T14:32:49.628Z,66.97
2018-09-21T14:35:18.066Z,66.69
2018-09-21T14:37:46.443Z,67.82
2018-09-21T14:40:14.845Z,68.00
2018-09-21T14:42:43.228Z,68.95
2018-09-21T14:45:11.782Z,70.41
2018-09-21T14:47:40.154Z,69.79
2018-09-21T14:50:08.847Z,69.73
2018-09-21T14:52:37.398Z,70.88
2018-09-21T14:55:06.762Z,69.44
2018-09-21T14:57:35.138Z,70.56
2018-09-21T15:00:03.542Z,70.32
2018-09-21T15:02:31.923Z,70.50
2018-09-21T15:05:00.318Z,70.39
2018-09-21T15:07:28.692Z,70.52
2018-09-21T15:09:57.102Z,71.36
2018-09-21T15:12:25.490Z,72.03
2018-09-21T15:14:53.931Z,71.39
2018-09-21T15:17:22.295Z,72.15
2018-09-21T15:19:50.697Z,72.02
2018-09-21T15:22:19.103Z,72.10
2018-09-21T15:24:47.559Z,73.10
2018-09-21T15:27:16.255Z,73.20
2018-09-21T15:29:44.762Z,72.79
2018-09-21T15:32:13.731Z,73.47
2018-09-21T15:34:42.469Z,73.32
2018-09-21T15:37:11.007Z,73.28
2018-09-21T15:39:39.576Z,73.89
2018-09-21T15:42:08.185Z,73.75
2018-09-21T15:44:37.866Z,74.14
2018-09-21T15:47:06.454Z,74.13
2018-09-21T15:49:35.016Z,73.97
2018-09-21T15:52:03.881Z,74.40
2018-09-21T15:54:32.399Z,74.65
2018-09-21T15:57:00.847Z,74.45
2018-09-21T15:59:29.569Z,74.21
2018-09-21T16:01:57.973Z,74.94
2018-09-21T16:04:26.558Z,74.50
2018-09-21T16:06:54.979Z,74.74
2018-09-21T16:09:23.385Z,75.29
2018-09-21T16:11:51.778Z,75.85
2018-09-21T16:14:20.175Z,75.53
2018-09-21T16:16:48.596Z,75.71
2018-09-21T16:19:16.975Z,76.71
2018-09-21T16:21:45.371Z,76.55
2018-09-21T16:24:13.743Z,76.39
2018-09-21T16:26:43.622Z,76.82
2018-09-21T16:29:12.259Z,76.71
2018-09-21T16:31:41.023Z,76.09
2018-09-21T16:34:09.527Z,76.34
2018-09-21T16:36:37.946Z,76.19
2018-09-21T16:39:08.598Z,76.69
2018-09-21T16:41:37.057Z,76.59
2018-09-21T16:44:05.639Z,76.46
2018-09-21T16:46:34.062Z,77.62
2018-09-21T16:49:02.480Z,77.73
2018-09-21T16:51:30.918Z,76.93
2018-09-21T16:53:59.310Z,77.28
2018-09-21T16:56:27.711Z,77.22
2018-09-21T16:58:56.191Z,77.39
2018-09-21T17:01:24.519Z,77.09
2018-09-21T17:03:52.903Z,77.87
2018-09-21T17:06:21.390Z,77.98
2018-09-21T17:08:49.784Z,78.26
2018-09-21T17:11:19.125Z,78.23
2018-09-21T17:13:47.571Z,77.74
2018-09-21T17:16:15.977Z,78.18
2018-09-21T17:18:44.362Z,77.83
2018-09-21T17:21:12.925Z,78.40
2018-09-21T17:23:41.245Z,78.33
2018-09-21T17:26:09.688Z,78.30
2018-09-21T17:28:38.074Z,78.63
2018-09-21T17:31:06.655Z,78.36
2018-09-21T17:33:35.027Z,78.23
2018-09-21T17:36:03.434Z,78.15
2018-09-21T17:38:31.806Z,78.71
2018-09-21T17:41:00.208Z,78.65
2018-09-21T17:43:28.606Z,78.75
2018-09-21T17:45:57.002Z,78.47
2018-09-21T17:48:25.362Z,78.67
2018-09-21T17:50:53.836Z,78.61
2018-09-21T17:53:22.332Z,78.84
2018-09-21T17:55:50.991Z,78.41
2018-09-21T17:58:19.391Z,79.14
2018-09-21T18:00:47.803Z,78.72
2018-09-21T18:03:16.218Z,79.40
2018-09-21T18:05:44.594Z,79.48
2018-09-21T18:08:13.000Z,79.67
2018-09-21T18:10:41.384Z,79.71
2018-09-21T18:13:09.937Z,79.39
2018-09-21T18:15:38.308Z,79.19
2018-09-21T18:18:06.707Z,78.67
2018-09-21T18:20:35.083Z,78.48
2018-09-21T18:23:03.474Z,78.74
2018-09-21T18:25:31.930Z,78.56
2018-09-21T18:28:00.335Z,79.21
2018-09-21T18:30:28.897Z,78.58
2018-09-21T18:32:57.298Z,78.71
2018-09-21T18:35:25.674Z,78.67
2018-09-21T18:37:54.064Z,78.79
2018-09-21T18:40:22.710Z,79.10
2018-09-21T18:42:51.238Z,78.89
2018-09-21T18:45:19.615Z,79.18
2018-09-21T18:47:48.015Z,79.07
2018-09-21T18:50:16.457Z,78.59
2018-09-21T18:52:44.814Z,79.24
2018-09-21T18:55:13.203Z,78.50
2018-09-21T18:57:41.603Z,79.45
2018-09-21T19:00:09.982Z,78.61
2018-09-21T19:02:38.383Z,78.81
2018-09-21T19:05:06.799Z,78.88
2018-09-21T19:07:35.195Z,79.62
2018-09-21T19:10:03.570Z,79.25
2018-09-21T19:12:31.967Z,80.03
2018-09-21T19:15:00.646Z,79.54
2018-09-21T19:17:29.755Z,79.97
2018-09-21T19:19:58.126Z,79.81
2018-09-21T19:22:26.531Z,78.92
2018-09-21T19:24:55.015Z,79.59
2018-09-21T19:27:24.079Z,78.81
2018-09-21T19:29:52.457Z,79.17
2018-09-21T19:32:20.927Z,79.18
2018-09-21T19:34:49.317Z,78.76
2018-09-21T19:37:17.727Z,78.87
2018-09-21T19:39:46.200Z,78.71
2018-09-21T19:42:14.570Z,79.20
2018-09-21T19:44:42.975Z,79.50
2018-09-21T19:47:11.562Z,79.93
2018-09-21T19:49:40.008Z,79.95
2018-09-21T19:52:08.403Z,79.94
2018-09-21T19:54:36.978Z,79.35
2018-09-21T19:57:05.386Z,80.17
2018-09-21T19:59:34.730Z,79.78
2018-09-21T20:02:03.167Z,80.06
2018-09-21T20:04:31.584Z,79.80
2018-09-21T20:07:00.018Z,79.65
2018-09-21T20:09:28.417Z,80.50
2018-09-21T20:11:56.819Z,80.71
2018-09-21T20:14:25.218Z,80.26
2018-09-21T20:16:53.596Z,80.16
2018-09-21T20:19:22.002Z,80.43
2018-09-21T20:21:50.374Z,80.32
2018-09-21T20:24:18.793Z,80.62
2018-09-21T20:26:47.192Z,80.77
2018-09-21T20:29:15.594Z,80.68
2018-09-21T20:31:49.927Z,79.73
2018-09-21T20:34:18.523Z,80.55
2018-09-21T20:36:46.938Z,79.99
2018-09-21T20:39:15.346Z,80.04
2018-09-21T20:41:43.866Z,79.55
2018-09-21T20:44:12.274Z,80.11
2018-09-21T20:46:40.646Z,79.02
2018-09-21T20:49:09.151Z,78.49
2018-09-21T20:51:37.551Z,78.24
2018-09-21T20:54:06.203Z,78.47
2018-09-21T20:56:34.573Z,77.85
2018-09-21T20:59:02.964Z,77.32
2018-09-21T21:01:31.374Z,76.85
2018-09-21T21:03:59.768Z,76.83
2018-09-21T21:06:28.146Z,77.32
2018-09-21T21:08:56.548Z,77.37
2018-09-21T21:11:24.918Z,76.68
2018-09-21T21:13:53.320Z,76.39
2018-09-21T21:16:21.692Z,76.56
2018-09-21T21:18:50.091Z,76.52
2018-09-21T21:21:18.466Z,76.77
2018-09-21T21:23:46.863Z,76.62
2018-09-21T21:26:15.308Z,76.46
2018-09-21T21:28:43.703Z,75.91
2018-09-21T21:31:12.091Z,76.44
2018-09-21T21:33:40.510Z,75.60
2018-09-21T21:36:09.582Z,75.67
2018-09-21T21:38:38.753Z,75.63
2018-09-21T21:41:07.174Z,74.87
2018-09-21T21:43:35.817Z,73.88
2018-09-21T21:46:04.498Z,73.41
2018-09-21T21:48:32.899Z,73.10
2018-09-21T21:51:01.322Z,72.47
2018-09-21T21:53:29.714Z,73.02
2018-09-21T21:55:58.404Z,72.49
2018-09-21T21:58:27.011Z,73.04
2018-09-21T22:01:00.946Z,72.08
2018-09-21T22:03:29.342Z,72.82
2018-09-21T22:05:57.764Z,72.25
2018-09-21T22:08:26.162Z,72.59
2018-09-21T22:10:54.597Z,71.75
2018-09-21T22:13:28.329Z,72.55
2018-09-21T22:15:56.762Z,72.37
2018-09-21T22:18:25.412Z,72.95
2018-09-21T22:20:53.839Z,73.11
2018-09-21T22:23:22.246Z,72.89
2018-09-21T22:25:50.695Z,72.40
2018-09-21T22:28:19.089Z,72.14
2018-09-21T22:30:47.530Z,72.14
2018-09-21T22:33:15.926Z,71.90
2018-09-21T22:35:44.383Z,71.22
2018-09-21T22:38:12.787Z,71.18
2018-09-21T22:40:41.209Z,71.19
2018-09-21T22:43:09.597Z,71.66
2018-09-21T22:45:38.009Z,71.55
2018-09-21T22:48:06.430Z,71.16
2018-09-21T22:50:34.902Z,71.13
2018-09-21T22:53:03.299Z,70.92
2018-09-21T22:55:31.718Z,71.31
2018-09-21T22:58:00.115Z,70.24
2018-09-21T23:00:28.538Z,70.12
2018-09-21T23:02:56.941Z,69.83
2018-09-21T23:05:25.367Z,69.59
2018-09-21T23:07:53.767Z,69.24
2018-09-21T23:10:22.185Z,68.95
2018-09-21T23:12:50.588Z,68.68
2018-09-21T23:15:19.006Z,69.29
2018-09-21T23:17:47.761Z,67.93
2018-09-21T23:20:16.187Z,66.67
2018-09-21T23:22:44.831Z,66.31
2018-09-21T23:25:13.438Z,65.31
2018-09-21T23:27:41.837Z,64.78
2018-09-21T23:30:10.277Z,64.44
2018-09-21T23:32:38.669Z,63.53
2018-09-21T23:35:07.106Z,64.25
2018-09-21T23:37:35.503Z,63.25
2018-09-21T23:40:03.910Z,63.71
2018-09-21T23:42:32.340Z,63.35
2018-09-21T23:45:00.734Z,63.26
2018-09-21T23:47:29.151Z,63.34
2018-09-21T23:49:57.547Z,64.32
2018-09-21T23:52:25.980Z,63.43
2018-09-21T23:54:54.378Z,63.95
2018-09-21T23:57:22.794Z,64.09
2018-09-21T23:59:51.346Z,63.63
